createdAt,value
2019-02-08T00:02:43.461Z,2.50
2019-02-08T00:07:47.270Z,2.00
2019-02-08T00:12:51.092Z,3.00
2019-02-08T00:17:55.140Z,3.00
2019-02-08T00:22:58.938Z,3.00
2019-02-08T00:28:02.740Z,2.25
2019-02-08T00:33:06.568Z,2.00
2019-02-08T00:38:10.380Z,3.00
2019-02-08T00:43:14.564Z,2.00
2019-02-08T00:48:18.368Z,2.40
2019-02-08T00:53:22.183Z,2.50
2019-02-08T00:58:26.067Z,3.00
2019-02-08T01:03:29.858Z,2.00
2019-02-08T01:08:33.714Z,1.75
2019-02-08T01:13:37.505Z,2.50
2019-02-08T01:18:41.316Z,2.00
2019-02-08T01:23:45.124Z,2.00
2019-02-08T01:28:48.928Z,2.40
2019-02-08T01:33:52.722Z,2.00
2019-02-08T01:38:56.518Z,2.00
2019-02-08T01:44:00.320Z,1.75
2019-02-08T01:49:04.144Z,2.00
2019-02-08T01:54:07.951Z,2.40
2019-02-08T01:59:11.759Z,3.00
2019-02-08T02:04:15.565Z,2.00
2019-02-08T02:09:19.369Z,2.00
2019-02-08T02:14:23.163Z,2.00
2019-02-08T02:19:27.051Z,2.00
2019-02-08T02:24:30.863Z,2.00
2019-02-08T02:29:34.664Z,2.00
2019-02-08T02:34:38.465Z,1.00
2019-02-08T02:39:42.266Z,2.00
2019-02-08T02:44:46.067Z,1.80
2019-02-08T02:49:49.881Z,1.50
2019-02-08T02:54:53.692Z,2.00
2019-02-08T02:59:57.489Z,2.00
2019-02-08T03:05:01.329Z,1.50
2019-02-08T03:10:06.447Z,2.00
2019-02-08T03:15:11.176Z,2.00
2019-02-08T03:20:16.440Z,2.00
2019-02-08T03:25:22.282Z,1.25
2019-02-08T03:30:30.865Z,1.40
2019-02-08T03:35:34.673Z,1.75
2019-02-08T03:40:38.463Z,1.75
2019-02-08T03:45:43.360Z,2.00
2019-02-08T03:50:47.168Z,1.00
2019-02-08T03:55:58.075Z,1.80
2019-02-08T04:01:06.682Z,1.00
2019-02-08T04:06:10.478Z,2.00
2019-02-08T04:11:14.366Z,1.50
2019-02-08T04:16:18.167Z,1.00
2019-02-08T04:21:21.989Z,1.00
2019-02-08T04:26:25.827Z,1.00
2019-02-08T04:31:29.623Z,1.50
2019-02-08T04:36:33.428Z,1.00
2019-02-08T04:41:37.214Z,2.50
2019-02-08T04:46:41.023Z,1.00
2019-02-08T04:51:44.847Z,1.00
2019-02-08T04:56:48.631Z,1.25
2019-02-08T05:01:52.539Z,1.00
2019-02-08T05:06:56.339Z,1.00
2019-02-08T05:12:00.106Z,1.00
2019-02-08T05:17:03.896Z,1.00
2019-02-08T05:22:07.687Z,1.00
2019-02-08T05:27:11.474Z,1.00
2019-02-08T05:32:15.255Z,1.50
2019-02-08T05:37:19.059Z,1.20
2019-02-08T05:42:22.862Z,1.40
2019-02-08T05:47:26.655Z,1.75
2019-02-08T05:52:30.451Z,1.00
2019-02-08T05:57:34.244Z,0.75
2019-02-08T06:02:38.021Z,1.00
2019-02-08T06:07:41.817Z,1.25
2019-02-08T06:12:45.591Z,1.00
2019-02-08T06:17:49.383Z,1.00
2019-02-08T06:22:53.174Z,1.00
2019-02-08T06:27:56.981Z,1.00
2019-02-08T06:33:00.792Z,1.20
2019-02-08T06:38:04.702Z,1.00
2019-02-08T06:43:08.509Z,1.00
2019-02-08T06:48:13.444Z,1.00
2019-02-08T06:53:17.224Z,0.60
2019-02-08T06:58:32.205Z,1.00
2019-02-08T07:03:52.078Z,1.00
2019-02-08T07:09:01.888Z,1.00
2019-02-08T07:14:23.695Z,1.00
2019-02-08T07:20:01.611Z,1.50
2019-02-08T07:25:20.218Z,0.80
2019-02-08T07:30:47.800Z,0.80
2019-02-08T07:36:01.873Z,0.00
2019-02-08T07:41:24.851Z,1.75
2019-02-08T07:46:37.046Z,1.00
2019-02-08T07:51:51.298Z,1.00
2019-02-08T07:57:25.304Z,7.00
2019-02-08T08:02:43.304Z,9.60
2019-02-08T08:08:01.186Z,7.60
2019-02-08T08:13:27.239Z,5.20
2019-02-08T08:18:44.009Z,4.00
2019-02-08T08:23:59.137Z,3.00
2019-02-08T08:29:27.701Z,2.25
2019-02-08T08:35:06.711Z,3.00
2019-02-08T08:40:43.927Z,2.17
2019-02-08T08:46:07.399Z,3.00
2019-02-08T08:51:57.323Z,2.50
2019-02-08T08:57:12.479Z,2.00
2019-02-08T09:02:31.363Z,2.00
2019-02-08T09:08:03.672Z,2.00
2019-02-08T09:13:36.106Z,2.00
2019-02-08T09:19:16.327Z,2.00
2019-02-08T09:25:00.272Z,2.00
2019-02-08T09:30:57.662Z,2.00
2019-02-08T09:36:38.045Z,1.00
2019-02-08T09:42:34.590Z,1.40
2019-02-08T09:48:13.359Z,2.00
2019-02-08T09:53:50.559Z,1.50
2019-02-08T09:59:26.730Z,1.00
2019-02-08T10:04:58.133Z,1.50
2019-02-08T10:10:32.004Z,1.00
2019-02-08T10:16:12.288Z,2.00
2019-02-08T10:22:21.830Z,1.00
2019-02-08T10:28:18.241Z,1.50
2019-02-08T10:34:02.600Z,1.00
2019-02-08T10:39:41.953Z,1.00
2019-02-08T10:45:20.395Z,1.75
2019-02-08T10:51:14.590Z,1.00
2019-02-08T10:57:18.125Z,2.00
2019-02-08T11:03:24.566Z,2.00
2019-02-08T11:09:05.363Z,1.00
2019-02-08T11:14:37.800Z,1.00
2019-02-08T11:19:40.338Z,1.00
2019-02-08T11:24:44.158Z,1.00
2019-02-08T11:29:47.960Z,2.00
2019-02-08T11:34:51.761Z,1.50
2019-02-08T11:39:55.582Z,1.25
2019-02-08T11:44:59.450Z,1.20
2019-02-08T11:50:03.555Z,1.40
2019-02-08T11:55:08.107Z,2.00
2019-02-08T12:00:16.584Z,2.00
2019-02-08T12:09:03.896Z,1.00
2019-02-08T12:10:34.890Z,2.00
2019-02-08T12:15:38.737Z,2.50
2019-02-08T12:20:42.533Z,1.25
2019-02-08T12:25:46.376Z,1.25
2019-02-08T12:30:50.167Z,1.50
2019-02-08T12:35:53.977Z,1.80
2019-02-08T12:40:57.776Z,2.00
2019-02-08T12:46:01.566Z,1.25
2019-02-08T12:51:05.339Z,1.75
2019-02-08T12:56:09.107Z,1.20
2019-02-08T13:01:12.894Z,2.00
2019-02-08T13:06:16.683Z,1.00
2019-02-08T13:11:20.464Z,1.75
2019-02-08T13:16:24.262Z,1.25
2019-02-08T13:21:28.054Z,1.20
2019-02-08T13:26:32.074Z,1.00
2019-02-08T13:31:35.902Z,1.00
2019-02-08T13:36:39.700Z,1.00
2019-02-08T13:41:43.522Z,1.00
2019-02-08T13:46:47.341Z,1.60
2019-02-08T13:51:51.169Z,1.00
2019-02-08T13:57:00.541Z,1.00
2019-02-08T14:02:00.492Z,1.00
2019-02-08T14:07:04.278Z,1.50
2019-02-08T14:12:08.100Z,1.00
2019-02-08T14:17:11.915Z,1.00
2019-02-08T14:22:15.712Z,0.80
2019-02-08T14:27:19.569Z,0.50
2019-02-08T14:32:23.359Z,1.00
2019-02-08T14:37:27.145Z,0.75
2019-02-08T14:42:30.938Z,1.00
2019-02-08T14:47:34.721Z,1.00
2019-02-08T14:52:38.510Z,0.75
2019-02-08T14:57:42.286Z,0.80
2019-02-08T15:02:46.103Z,0.00
2019-02-08T15:07:49.901Z,1.00
2019-02-08T15:12:53.698Z,1.00
2019-02-08T15:17:57.493Z,0.00
2019-02-08T15:23:01.310Z,1.00
2019-02-08T15:28:05.889Z,1.00
2019-02-08T15:33:09.700Z,0.00
2019-02-08T15:38:13.532Z,1.00
2019-02-08T15:43:19.061Z,1.00
2019-02-08T15:48:22.846Z,1.00
2019-02-08T15:53:26.727Z,0.50
2019-02-08T15:58:30.580Z,1.00
2019-02-08T16:03:34.375Z,1.00
2019-02-08T16:08:38.167Z,1.00
2019-02-08T16:13:41.977Z,0.20
2019-02-08T16:18:45.774Z,0.75
2019-02-08T16:23:49.559Z,1.00
2019-02-08T16:28:53.458Z,0.50
2019-02-08T16:33:57.313Z,0.00
2019-02-08T16:39:02.228Z,1.00
2019-02-08T16:44:06.176Z,0.00
2019-02-08T16:49:09.941Z,0.60
2019-02-08T16:54:13.723Z,1.00
2019-02-08T16:59:17.633Z,0.75
2019-02-08T17:04:21.412Z,0.00
2019-02-08T17:09:25.222Z,0.00
2019-02-08T17:14:29.118Z,0.00
2019-02-08T17:19:32.893Z,0.00
2019-02-08T17:24:36.666Z,0.50
2019-02-08T17:29:40.459Z,0.00
2019-02-08T17:34:44.305Z,0.50
2019-02-08T17:39:48.108Z,0.50
2019-02-08T17:44:52.199Z,1.00
2019-02-08T17:49:55.979Z,0.75
2019-02-08T17:54:59.782Z,0.00
2019-02-08T18:00:04.389Z,0.00
2019-02-08T18:05:08.696Z,0.20
2019-02-08T18:10:15.708Z,0.80
2019-02-08T18:15:20.830Z,0.00
2019-02-08T18:20:27.304Z,0.50
2019-02-08T18:25:31.139Z,0.00
2019-02-08T18:30:34.986Z,0.00
2019-02-08T18:35:38.822Z,0.60
2019-02-08T18:40:42.706Z,0.00
2019-02-08T18:45:46.582Z,0.00
2019-02-08T18:50:52.203Z,1.00
2019-02-08T18:55:55.995Z,0.00
2019-02-08T19:00:59.830Z,0.80
2019-02-08T19:06:03.647Z,0.00
2019-02-08T19:11:07.436Z,0.00
2019-02-08T19:16:11.237Z,0.00
2019-02-08T19:21:15.032Z,0.75
2019-02-08T19:26:18.858Z,0.00
2019-02-08T19:31:22.622Z,0.00
2019-02-08T19:36:26.424Z,0.50
2019-02-08T19:41:30.230Z,0.00
2019-02-08T19:46:34.050Z,0.25
2019-02-08T19:51:37.819Z,0.00
2019-02-08T19:56:41.589Z,0.00
2019-02-08T20:01:45.367Z,0.00
2019-02-08T20:06:49.143Z,0.75
2019-02-08T20:11:52.922Z,0.00
2019-02-08T20:16:56.721Z,0.75
2019-02-08T20:22:00.488Z,0.00
2019-02-08T20:27:04.275Z,0.80
2019-02-08T20:32:08.145Z,0.50
2019-02-08T20:37:12.013Z,0.40
2019-02-08T20:42:15.827Z,0.00
2019-02-08T20:47:19.666Z,1.00
2019-02-08T20:52:23.448Z,0.50
2019-02-08T20:57:27.247Z,0.00
2019-02-08T21:02:31.059Z,1.00
2019-02-08T21:07:34.877Z,0.75
2019-02-08T21:12:38.634Z,0.00
2019-02-08T21:17:42.747Z,0.20
2019-02-08T21:22:46.623Z,0.00
2019-02-08T21:27:50.445Z,0.25
2019-02-08T21:32:54.277Z,0.00
2019-02-08T21:37:58.089Z,0.20
2019-02-08T21:43:01.888Z,0.00
2019-02-08T21:48:06.919Z,0.00
2019-02-08T21:53:10.854Z,0.00
2019-02-08T21:58:14.655Z,0.00
2019-02-08T22:03:18.499Z,0.00
2019-02-08T22:08:22.273Z,0.00
2019-02-08T22:13:26.072Z,0.00
2019-02-08T22:18:29.884Z,0.50
2019-02-08T22:23:33.681Z,0.00
2019-02-08T22:28:37.526Z,0.75
2019-02-08T22:33:41.333Z,0.25
2019-02-08T22:38:45.218Z,0.00
2019-02-08T22:43:48.992Z,0.00
2019-02-08T22:48:52.912Z,0.00
2019-02-08T22:53:56.741Z,0.00
2019-02-08T22:59:00.541Z,0.00
2019-02-08T23:04:06.300Z,0.00
2019-02-08T23:09:23.315Z,0.00
2019-02-08T23:14:27.125Z,0.00
2019-02-08T23:19:30.947Z,0.00
2019-02-08T23:24:34.740Z,0.00
2019-02-08T23:29:38.643Z,0.00
2019-02-08T23:34:42.417Z,0.00
2019-02-08T23:39:46.299Z,0.25
2019-02-08T23:44:50.223Z,0.00
2019-02-08T23:49:54.138Z,0.00
2019-02-08T23:54:57.932Z,0.00
